sensor_id;sensor_type;location;lat;lon;timestamp;pressure;altitude;pressure_sealevel;temperature;humidity
37078;BME280;22989;55.998;37.212;2023-09-18T00:00:40;40599.03;;;-145.39;57.58
37078;BME280;22989;55.998;37.212;2023-09-18T00:03:08;40628.31;;;-145.39;57.80
37078;BME280;22989;55.998;37.212;2023-09-18T00:05:34;40636.13;;;-145.39;57.67
37078;BME280;22989;55.998;37.212;2023-09-18T00:08:00;40628.31;;;-145.39;57.68
37078;BME280;22989;55.998;37.212;2023-09-18T00:10:28;40616.59;;;-145.39;57.93
37078;BME280;22989;55.998;37.212;2023-09-18T00:12:54;40630.25;;;-145.39;57.83
37078;BME280;22989;55.998;37.212;2023-09-18T00:15:20;40602.94;;;-145.39;57.76
37078;BME280;22989;55.998;37.212;2023-09-18T00:17:46;40626.34;;;-145.39;57.88
37078;BME280;22989;55.998;37.212;2023-09-18T00:20:11;40597.06;;;-145.39;57.79
37078;BME280;22989;55.998;37.212;2023-09-18T00:22:37;40671.25;;;-145.39;57.78
37078;BME280;22989;55.998;37.212;2023-09-18T00:25:03;40673.19;;;-145.39;57.87
37078;BME280;22989;55.998;37.212;2023-09-18T00:27:29;40599.03;;;-145.39;57.87
37078;BME280;22989;55.998;37.212;2023-09-18T00:29:55;40608.78;;;-145.39;57.83
37078;BME280;22989;55.998;37.212;2023-09-18T00:32:21;40597.06;;;-145.39;57.83
37078;BME280;22989;55.998;37.212;2023-09-18T00:34:46;40599.03;;;-145.39;57.98
37078;BME280;22989;55.998;37.212;2023-09-18T00:37:12;40600.97;;;-145.39;57.94
37078;BME280;22989;55.998;37.212;2023-09-18T00:39:38;40561.94;;;-145.39;57.83
37078;BME280;22989;55.998;37.212;2023-09-18T00:42:04;40563.91;;;-145.39;57.81
37078;BME280;22989;55.998;37.212;2023-09-18T00:44:29;40552.19;;;-145.39;57.95
37078;BME280;22989;55.998;37.212;2023-09-18T00:46:55;40487.78;;;-145.39;57.96
37078;BME280;22989;55.998;37.212;2023-09-18T00:49:22;40520.97;;;-145.39;57.70
37078;BME280;22989;55.998;37.212;2023-09-18T00:51:49;40519.00;;;-145.39;57.58
37078;BME280;22989;55.998;37.212;2023-09-18T00:54:18;40552.19;;;-145.39;57.71
37078;BME280;22989;55.998;37.212;2023-09-18T00:56:47;40515.13;;;-145.39;57.56
37078;BME280;22989;55.998;37.212;2023-09-18T00:59:20;40532.69;;;-145.39;57.70
37078;BME280;22989;55.998;37.212;2023-09-18T01:01:48;40505.34;;;-145.39;57.58
37078;BME280;22989;55.998;37.212;2023-09-18T01:04:16;40468.28;;;-145.39;57.70
37078;BME280;22989;55.998;37.212;2023-09-18T01:06:42;40476.06;;;-145.39;57.41
37078;BME280;22989;55.998;37.212;2023-09-18T01:09:09;40456.56;;;-145.39;57.54
37078;BME280;22989;55.998;37.212;2023-09-18T01:11:44;40440.94;;;-145.39;57.57
37078;BME280;22989;55.998;37.212;2023-09-18T01:14:25;40468.28;;;-145.39;57.47
37078;BME280;22989;55.998;37.212;2023-09-18T01:16:57;40440.94;;;-145.39;57.48
37078;BME280;22989;55.998;37.212;2023-09-18T01:22:01;40446.81;;;-145.39;57.26
37078;BME280;22989;55.998;37.212;2023-09-18T01:24:27;40491.69;;;-145.39;57.22
37078;BME280;22989;55.998;37.212;2023-09-18T01:26:53;40483.88;;;-145.39;57.26
37078;BME280;22989;55.998;37.212;2023-09-18T01:29:18;40476.06;;;-145.39;57.29
37078;BME280;22989;55.998;37.212;2023-09-18T01:31:45;40479.97;;;-145.39;57.12
37078;BME280;22989;55.998;37.212;2023-09-18T01:34:16;40483.88;;;-145.39;57.29
37078;BME280;22989;55.998;37.212;2023-09-18T01:36:44;40511.22;;;-145.39;57.09
37078;BME280;22989;55.998;37.212;2023-09-18T01:39:11;40485.84;;;-145.39;57.11
37078;BME280;22989;55.998;37.212;2023-09-18T01:41:38;40515.13;;;-145.39;57.18
37078;BME280;22989;55.998;37.212;2023-09-18T01:44:04;40511.22;;;-145.39;57.05
37078;BME280;22989;55.998;37.212;2023-09-18T01:46:32;40536.56;;;-145.39;57.16
37078;BME280;22989;55.998;37.212;2023-09-18T01:49:02;40519.00;;;-145.39;57.05
37078;BME280;22989;55.998;37.212;2023-09-18T01:51:32;40519.00;;;-145.39;57.01
37078;BME280;22989;55.998;37.212;2023-09-18T01:53:57;40585.38;;;-145.39;56.98
37078;BME280;22989;55.998;37.212;2023-09-18T01:56:23;40536.56;;;-145.39;57.07
37078;BME280;22989;55.998;37.212;2023-09-18T01:58:49;40550.25;;;-145.39;57.03
37078;BME280;22989;55.998;37.212;2023-09-18T02:01:15;40460.47;;;-145.39;57.13
37078;BME280;22989;55.998;37.212;2023-09-18T02:03:41;40522.91;;;-145.39;57.00
37078;BME280;22989;55.998;37.212;2023-09-18T02:06:10;40546.34;;;-145.39;57.18
37078;BME280;22989;55.998;37.212;2023-09-18T02:08:36;40499.50;;;-145.39;57.04
37078;BME280;22989;55.998;37.212;2023-09-18T02:11:02;40519.00;;;-145.39;56.94
37078;BME280;22989;55.998;37.212;2023-09-18T02:13:28;40491.69;;;-145.39;57.04
37078;BME280;22989;55.998;37.212;2023-09-18T02:15:54;40542.44;;;-145.39;57.18
37078;BME280;22989;55.998;37.212;2023-09-18T02:18:21;40479.97;;;-145.39;56.94
37078;BME280;22989;55.998;37.212;2023-09-18T02:20:46;40454.63;;;-145.39;56.87
37078;BME280;22989;55.998;37.212;2023-09-18T02:23:17;40427.28;;;-145.39;56.96
37078;BME280;22989;55.998;37.212;2023-09-18T02:25:44;40448.75;;;-145.39;56.95
37078;BME280;22989;55.998;37.212;2023-09-18T02:28:09;40442.91;;;-145.39;56.89
37078;BME280;22989;55.998;37.212;2023-09-18T02:30:36;40456.56;;;-145.39;56.85
37078;BME280;22989;55.998;37.212;2023-09-18T02:33:02;40388.25;;;-145.39;56.86
37078;BME280;22989;55.998;37.212;2023-09-18T02:35:34;40407.78;;;-145.39;56.80
37078;BME280;22989;55.998;37.212;2023-09-18T02:37:59;40421.44;;;-145.39;56.73
37078;BME280;22989;55.998;37.212;2023-09-18T02:40:27;40444.84;;;-145.39;56.63
37078;BME280;22989;55.998;37.212;2023-09-18T02:42:53;40415.59;;;-145.39;56.57
37078;BME280;22989;55.998;37.212;2023-09-18T02:45:18;40476.06;;;-145.39;56.64
37078;BME280;22989;55.998;37.212;2023-09-18T02:47:44;40405.81;;;-145.39;56.59
37078;BME280;22989;55.998;37.212;2023-09-18T02:50:09;40481.94;;;-145.39;56.46
37078;BME280;22989;55.998;37.212;2023-09-18T02:52:36;40481.94;;;-145.39;56.42
37078;BME280;22989;55.998;37.212;2023-09-18T02:55:02;40493.66;;;-145.39;56.55
37078;BME280;22989;55.998;37.212;2023-09-18T02:57:28;40507.31;;;-145.39;56.47
37078;BME280;22989;55.998;37.212;2023-09-18T02:59:54;40565.84;;;-145.39;56.32
37078;BME280;22989;55.998;37.212;2023-09-18T03:02:19;40600.97;;;-145.39;56.33
37078;BME280;22989;55.998;37.212;2023-09-18T03:04:45;40645.88;;;-145.39;56.34
37078;BME280;22989;55.998;37.212;2023-09-18T03:07:12;40640.00;;;-145.39;56.23
37078;BME280;22989;55.998;37.212;2023-09-18T03:09:38;40790.28;;;-145.39;56.29
37078;BME280;22989;55.998;37.212;2023-09-18T03:12:04;40924.97;;;-145.39;56.22
37078;BME280;22989;55.998;37.212;2023-09-18T03:14:30;41137.72;;;-145.39;56.30
37078;BME280;22989;55.998;37.212;2023-09-18T03:16:55;41291.91;;;-145.39;56.24
37078;BME280;22989;55.998;37.212;2023-09-18T03:19:21;41428.56;;;-145.39;56.17
37078;BME280;22989;55.998;37.212;2023-09-18T03:21:51;41580.81;;;-145.39;56.08
37078;BME280;22989;55.998;37.212;2023-09-18T03:24:16;41594.50;;;-145.39;56.23
37078;BME280;22989;55.998;37.212;2023-09-18T03:26:42;41651.09;;;-145.39;56.07
37078;BME280;22989;55.998;37.212;2023-09-18T03:29:08;41658.91;;;-145.39;56.16
37078;BME280;22989;55.998;37.212;2023-09-18T03:31:33;41641.34;;;-145.39;56.08
37078;BME280;22989;55.998;37.212;2023-09-18T03:33:59;41694.06;;;-145.39;56.04
37078;BME280;22989;55.998;37.212;2023-09-18T03:36:26;41686.25;;;-145.39;56.03
37078;BME280;22989;55.998;37.212;2023-09-18T03:38:52;41735.03;;;-145.39;56.03
37078;BME280;22989;55.998;37.212;2023-09-18T03:41:17;41783.84;;;-145.39;56.05
37078;BME280;22989;55.998;37.212;2023-09-18T03:43:43;41850.22;;;-145.39;56.02
37078;BME280;22989;55.998;37.212;2023-09-18T03:46:08;41984.94;;;-145.39;55.96
37078;BME280;22989;55.998;37.212;2023-09-18T03:48:43;42111.84;;;-145.39;55.90
37078;BME280;22989;55.998;37.212;2023-09-18T03:51:08;42256.31;;;-145.39;55.95
37078;BME280;22989;55.998;37.212;2023-09-18T03:53:35;42283.66;;;-145.39;55.86
37078;BME280;22989;55.998;37.212;2023-09-18T03:56:01;42334.41;;;-145.39;55.80
37078;BME280;22989;55.998;37.212;2023-09-18T03:58:27;42353.94;;;-145.39;55.92
37078;BME280;22989;55.998;37.212;2023-09-18T04:00:53;42303.19;;;-145.39;55.69
37078;BME280;22989;55.998;37.212;2023-09-18T04:03:19;42363.72;;;-145.39;55.68
37078;BME280;22989;55.998;37.212;2023-09-18T04:05:44;42404.72;;;-145.39;55.71
37078;BME280;22989;55.998;37.212;2023-09-18T04:08:10;42437.91;;;-145.39;55.63
37078;BME280;22989;55.998;37.212;2023-09-18T04:10:36;42566.78;;;-145.39;55.49
37078;BME280;22989;55.998;37.212;2023-09-18T04:13:03;42728.84;;;-145.39;55.52
37078;BME280;22989;55.998;37.212;2023-09-18T04:15:29;42713.22;;;-145.39;55.34
37078;BME280;22989;55.998;37.212;2023-09-18T04:17:56;42514.06;;;-145.39;55.25
37078;BME280;22989;55.998;37.212;2023-09-18T04:20:22;42394.94;;;-145.39;55.00
37078;BME280;22989;55.998;37.212;2023-09-18T04:26:06;42180.19;;;-145.39;54.22
37078;BME280;22989;55.998;37.212;2023-09-18T04:28:32;42020.06;;;-145.39;53.83
37078;BME280;22989;55.998;37.212;2023-09-18T04:30:58;41840.47;;;-145.39;53.76
37078;BME280;22989;55.998;37.212;2023-09-18T04:33:26;41721.38;;;-145.39;53.24
37078;BME280;22989;55.998;37.212;2023-09-18T04:35:54;41580.81;;;-145.39;52.61
37078;BME280;22989;55.998;37.212;2023-09-18T04:38:20;41692.09;;;-145.39;51.96
37078;BME280;22989;55.998;37.212;2023-09-18T04:40:45;41785.81;;;-145.39;51.65
37078;BME280;22989;55.998;37.212;2023-09-18T04:43:12;41850.22;;;-145.39;51.25
37078;BME280;22989;55.998;37.212;2023-09-18T04:45:37;41680.38;;;-145.39;51.15
37078;BME280;22989;55.998;37.212;2023-09-18T04:48:03;41727.25;;;-145.39;50.86
37078;BME280;22989;55.998;37.212;2023-09-18T04:50:32;41637.44;;;-145.39;50.71
37078;BME280;22989;55.998;37.212;2023-09-18T04:52:59;41569.13;;;-145.39;50.16
37078;BME280;22989;55.998;37.212;2023-09-18T04:55:26;41469.56;;;-145.39;49.90
37078;BME280;22989;55.998;37.212;2023-09-18T04:57:52;41348.53;;;-145.39;49.31
37078;BME280;22989;55.998;37.212;2023-09-18T05:00:17;41518.34;;;-145.39;48.99
37078;BME280;22989;55.998;37.212;2023-09-18T05:02:48;41549.59;;;-145.39;48.69
37078;BME280;22989;55.998;37.212;2023-09-18T05:05:14;41479.31;;;-145.39;48.40
37078;BME280;22989;55.998;37.212;2023-09-18T05:07:40;41284.13;;;-145.39;48.30
37078;BME280;22989;55.998;37.212;2023-09-18T05:10:05;41118.19;;;-145.39;47.69
37078;BME280;22989;55.998;37.212;2023-09-18T05:12:31;40917.16;;;-145.39;47.31
37078;BME280;22989;55.998;37.212;2023-09-18T05:14:57;40739.56;;;-145.39;46.65
37078;BME280;22989;55.998;37.212;2023-09-18T05:17:39;40360.94;;;-145.39;45.89
37078;BME280;22989;55.998;37.212;2023-09-18T05:20:06;40483.88;;;-145.39;45.38
37078;BME280;22989;55.998;37.212;2023-09-18T05:22:33;40770.78;;;-145.39;44.96
37078;BME280;22989;55.998;37.212;2023-09-18T05:24:58;40995.22;;;-145.39;44.93
37078;BME280;22989;55.998;37.212;2023-09-18T05:27:24;41219.69;;;-145.39;44.95
37078;BME280;22989;55.998;37.212;2023-09-18T05:29:50;41325.09;;;-145.39;45.08
37078;BME280;22989;55.998;37.212;2023-09-18T05:32:16;41461.75;;;-145.39;45.42
37078;BME280;22989;55.998;37.212;2023-09-18T05:34:41;41518.34;;;-145.39;45.58
37078;BME280;22989;55.998;37.212;2023-09-18T05:37:07;41582.78;;;-145.39;45.72
37078;BME280;22989;55.998;37.212;2023-09-18T05:39:32;41635.50;;;-145.39;45.88
37078;BME280;22989;55.998;37.212;2023-09-18T05:41:58;41578.88;;;-145.39;46.02
37078;BME280;22989;55.998;37.212;2023-09-18T05:44:24;41590.59;;;-145.39;46.10
37078;BME280;22989;55.998;37.212;2023-09-18T05:46:50;41615.97;;;-145.39;46.25
37078;BME280;22989;55.998;37.212;2023-09-18T05:49:16;41612.06;;;-145.39;46.34
37078;BME280;22989;55.998;37.212;2023-09-18T05:51:41;41637.44;;;-145.39;46.63
37078;BME280;22989;55.998;37.212;2023-09-18T05:54:07;41565.22;;;-145.39;46.69
37078;BME280;22989;55.998;37.212;2023-09-18T05:56:33;41633.53;;;-145.39;46.77
37078;BME280;22989;55.998;37.212;2023-09-18T05:58:59;41541.78;;;-145.39;47.02
37078;BME280;22989;55.998;37.212;2023-09-18T06:01:24;41582.78;;;-145.39;47.00
37078;BME280;22989;55.998;37.212;2023-09-18T06:03:50;41592.53;;;-145.39;47.25
37078;BME280;22989;55.998;37.212;2023-09-18T06:06:16;41635.50;;;-145.39;47.67
37078;BME280;22989;55.998;37.212;2023-09-18T06:08:41;41668.66;;;-145.39;47.66
37078;BME280;22989;55.998;37.212;2023-09-18T06:11:07;41655.00;;;-145.39;47.96
37078;BME280;22989;55.998;37.212;2023-09-18T06:13:32;41547.63;;;-145.39;48.12
37078;BME280;22989;55.998;37.212;2023-09-18T06:15:59;41477.38;;;-145.39;48.33
37078;BME280;22989;55.998;37.212;2023-09-18T06:18:30;41524.22;;;-145.39;48.30
37078;BME280;22989;55.998;37.212;2023-09-18T06:20:56;41580.81;;;-145.39;48.62
37078;BME280;22989;55.998;37.212;2023-09-18T06:23:21;41606.19;;;-145.39;48.62
37078;BME280;22989;55.998;37.212;2023-09-18T06:25:47;41586.69;;;-145.39;48.94
37078;BME280;22989;55.998;37.212;2023-09-18T06:28:13;41703.81;;;-145.39;49.22
37078;BME280;22989;55.998;37.212;2023-09-18T06:30:38;41787.75;;;-145.39;49.38
37078;BME280;22989;55.998;37.212;2023-09-18T06:33:04;41776.03;;;-145.39;49.52
37078;BME280;22989;55.998;37.212;2023-09-18T06:35:29;41709.66;;;-145.39;49.58
37078;BME280;22989;55.998;37.212;2023-09-18T06:37:55;41729.19;;;-145.39;49.60
37078;BME280;22989;55.998;37.212;2023-09-18T06:40:24;41692.09;;;-145.39;49.85
37078;BME280;22989;55.998;37.212;2023-09-18T06:42:50;41725.28;;;-145.39;49.93
37078;BME280;22989;55.998;37.212;2023-09-18T06:45:17;41774.09;;;-145.39;50.16
37078;BME280;22989;55.998;37.212;2023-09-18T06:47:43;41756.53;;;-145.39;50.28
37078;BME280;22989;55.998;37.212;2023-09-18T06:50:09;41727.25;;;-145.39;50.37
37078;BME280;22989;55.998;37.212;2023-09-18T06:52:35;41711.63;;;-145.39;50.37
37078;BME280;22989;55.998;37.212;2023-09-18T06:55:01;41752.63;;;-145.39;50.67
37078;BME280;22989;55.998;37.212;2023-09-18T06:57:26;41820.94;;;-145.39;50.58
37078;BME280;22989;55.998;37.212;2023-09-18T06:59:53;41801.41;;;-145.39;50.78
37078;BME280;22989;55.998;37.212;2023-09-18T07:02:18;41699.91;;;-145.39;50.74
37078;BME280;22989;55.998;37.212;2023-09-18T07:04:44;41653.06;;;-145.39;50.92
37078;BME280;22989;55.998;37.212;2023-09-18T07:07:13;41721.38;;;-145.39;51.07
37078;BME280;22989;55.998;37.212;2023-09-18T07:09:42;41858.03;;;-145.39;51.05
37078;BME280;22989;55.998;37.212;2023-09-18T07:12:08;41918.56;;;-145.39;51.03
37078;BME280;22989;55.998;37.212;2023-09-18T07:14:37;41947.84;;;-145.39;51.27
37078;BME280;22989;55.998;37.212;2023-09-18T07:17:04;42014.22;;;-145.39;51.38
37078;BME280;22989;55.998;37.212;2023-09-18T07:19:29;41949.78;;;-145.39;51.50
37078;BME280;22989;55.998;37.212;2023-09-18T07:21:55;42076.69;;;-145.39;51.54
37078;BME280;22989;55.998;37.212;2023-09-18T07:24:20;42027.88;;;-145.39;51.57
37078;BME280;22989;55.998;37.212;2023-09-18T07:26:47;41990.78;;;-145.39;51.64
37078;BME280;22989;55.998;37.212;2023-09-18T07:29:14;41916.59;;;-145.39;51.68
37078;BME280;22989;55.998;37.212;2023-09-18T07:31:44;41879.50;;;-145.39;51.69
37078;BME280;22989;55.998;37.212;2023-09-18T07:34:10;41803.38;;;-145.39;51.69
37078;BME280;22989;55.998;37.212;2023-09-18T07:36:36;41787.75;;;-145.39;51.73
37078;BME280;22989;55.998;37.212;2023-09-18T07:39:02;41893.19;;;-145.39;51.73
37078;BME280;22989;55.998;37.212;2023-09-18T07:41:30;41906.84;;;-145.39;51.91
37078;BME280;22989;55.998;37.212;2023-09-18T07:43:56;41740.91;;;-145.39;51.82
37078;BME280;22989;55.998;37.212;2023-09-18T07:46:23;41623.78;;;-145.39;51.77
37078;BME280;22989;55.998;37.212;2023-09-18T07:48:49;41615.97;;;-145.39;51.72
37078;BME280;22989;55.998;37.212;2023-09-18T07:51:14;41625.72;;;-145.39;51.86
37078;BME280;22989;55.998;37.212;2023-09-18T07:53:42;41941.97;;;-145.39;51.92
37078;BME280;22989;55.998;37.212;2023-09-18T07:56:07;41850.22;;;-145.39;52.17
37078;BME280;22989;55.998;37.212;2023-09-18T07:58:34;41832.66;;;-145.39;52.12
37078;BME280;22989;55.998;37.212;2023-09-18T08:01:04;42035.69;;;-145.39;52.17
37078;BME280;22989;55.998;37.212;2023-09-18T08:03:31;42059.13;;;-145.39;52.16
37078;BME280;22989;55.998;37.212;2023-09-18T08:05:57;42115.75;;;-145.39;52.27
37078;BME280;22989;55.998;37.212;2023-09-18T08:08:23;42004.47;;;-145.39;52.27
37078;BME280;22989;55.998;37.212;2023-09-18T08:10:49;41963.47;;;-145.39;52.33
37078;BME280;22989;55.998;37.212;2023-09-18T08:13:16;41871.69;;;-145.39;52.25
37078;BME280;22989;55.998;37.212;2023-09-18T08:15:42;41842.41;;;-145.39;52.00
37078;BME280;22989;55.998;37.212;2023-09-18T08:18:09;41865.84;;;-145.39;51.70
37078;BME280;22989;55.998;37.212;2023-09-18T08:20:39;41836.56;;;-145.39;51.79
37078;BME280;22989;55.998;37.212;2023-09-18T08:23:05;41793.63;;;-145.39;51.85
37078;BME280;22989;55.998;37.212;2023-09-18T08:25:31;41811.19;;;-145.39;51.72
37078;BME280;22989;55.998;37.212;2023-09-18T08:27:57;41762.38;;;-145.39;52.07
37078;BME280;22989;55.998;37.212;2023-09-18T08:30:23;41801.41;;;-145.39;51.95
37078;BME280;22989;55.998;37.212;2023-09-18T08:32:49;41770.19;;;-145.39;52.07
37078;BME280;22989;55.998;37.212;2023-09-18T08:35:15;41643.28;;;-145.39;52.00
37078;BME280;22989;55.998;37.212;2023-09-18T08:37:41;41655.00;;;-145.39;52.07
37078;BME280;22989;55.998;37.212;2023-09-18T08:40:10;41690.16;;;-145.39;52.17
37078;BME280;22989;55.998;37.212;2023-09-18T08:42:38;41565.22;;;-145.39;52.15
37078;BME280;22989;55.998;37.212;2023-09-18T08:45:09;41627.69;;;-145.39;52.29
37078;BME280;22989;55.998;37.212;2023-09-18T08:47:38;41656.97;;;-145.39;52.08
37078;BME280;22989;55.998;37.212;2023-09-18T08:50:05;41672.56;;;-145.39;52.15
37078;BME280;22989;55.998;37.212;2023-09-18T08:52:31;41776.03;;;-145.39;52.28
37078;BME280;22989;55.998;37.212;2023-09-18T08:54:57;41719.44;;;-145.39;52.30
37078;BME280;22989;55.998;37.212;2023-09-18T08:57:23;41655.00;;;-145.39;52.41
37078;BME280;22989;55.998;37.212;2023-09-18T08:59:50;41662.81;;;-145.39;52.38
37078;BME280;22989;55.998;37.212;2023-09-18T09:02:18;41645.25;;;-145.39;52.69
37078;BME280;22989;55.998;37.212;2023-09-18T09:04:43;41666.72;;;-145.39;52.49
37078;BME280;22989;55.998;37.212;2023-09-18T09:07:09;41709.66;;;-145.39;52.71
37078;BME280;22989;55.998;37.212;2023-09-18T09:09:35;41772.13;;;-145.39;52.65
37078;BME280;22989;55.998;37.212;2023-09-18T09:12:00;41805.31;;;-145.39;52.81
37078;BME280;22989;55.998;37.212;2023-09-18T09:14:26;41690.16;;;-145.39;52.95
37078;BME280;22989;55.998;37.212;2023-09-18T09:16:55;41680.38;;;-145.39;52.96
37078;BME280;22989;55.998;37.212;2023-09-18T09:19:34;41711.63;;;-145.39;53.08
37078;BME280;22989;55.998;37.212;2023-09-18T09:22:07;41672.56;;;-145.39;52.96
37078;BME280;22989;55.998;37.212;2023-09-18T09:24:41;42006.41;;;-145.39;52.99
37078;BME280;22989;55.998;37.212;2023-09-18T09:27:07;41961.50;;;-145.39;53.25
37078;BME280;22989;55.998;37.212;2023-09-18T09:29:34;41986.88;;;-145.39;53.23
37078;BME280;22989;55.998;37.212;2023-09-18T09:32:16;41996.66;;;-145.39;53.31
37078;BME280;22989;55.998;37.212;2023-09-18T09:34:44;41902.94;;;-145.39;53.20
37078;BME280;22989;55.998;37.212;2023-09-18T09:37:10;41744.81;;;-145.39;53.18
37078;BME280;22989;55.998;37.212;2023-09-18T09:39:49;41596.44;;;-145.39;52.93
37078;BME280;22989;55.998;37.212;2023-09-18T09:42:17;41471.50;;;-145.39;52.68
37078;BME280;22989;55.998;37.212;2023-09-18T09:45:00;41479.31;;;-145.39;52.58
37078;BME280;22989;55.998;37.212;2023-09-18T09:47:26;41496.88;;;-145.39;52.60
37078;BME280;22989;55.998;37.212;2023-09-18T09:49:51;41535.94;;;-145.39;52.49
37078;BME280;22989;55.998;37.212;2023-09-18T09:52:19;41533.97;;;-145.39;52.46
37078;BME280;22989;55.998;37.212;2023-09-18T09:54:47;41346.56;;;-145.39;52.42
37078;BME280;22989;55.998;37.212;2023-09-18T09:57:13;41330.97;;;-145.39;52.47
37078;BME280;22989;55.998;37.212;2023-09-18T09:59:38;41411.00;;;-145.39;52.62
37078;BME280;22989;55.998;37.212;2023-09-18T10:02:07;41582.78;;;-145.39;52.51
37078;BME280;22989;55.998;37.212;2023-09-18T10:04:35;41789.72;;;-145.39;52.59
37078;BME280;22989;55.998;37.212;2023-09-18T10:07:07;41955.66;;;-145.39;52.84
37078;BME280;22989;55.998;37.212;2023-09-18T10:09:41;41838.50;;;-145.39;52.73
37078;BME280;22989;55.998;37.212;2023-09-18T10:12:12;41791.66;;;-145.39;52.83
37078;BME280;22989;55.998;37.212;2023-09-18T10:14:41;41699.91;;;-145.39;52.80
37078;BME280;22989;55.998;37.212;2023-09-18T10:17:19;41547.63;;;-145.39;52.53
37078;BME280;22989;55.998;37.212;2023-09-18T10:19:51;41547.63;;;-145.39;52.56
37078;BME280;22989;55.998;37.212;2023-09-18T10:22:39;41524.22;;;-145.39;52.42
37078;BME280;22989;55.998;37.212;2023-09-18T10:25:14;41520.31;;;-145.39;52.17
37078;BME280;22989;55.998;37.212;2023-09-18T10:27:46;41440.28;;;-145.39;52.05
37078;BME280;22989;55.998;37.212;2023-09-18T10:30:15;41420.75;;;-145.39;52.02
37078;BME280;22989;55.998;37.212;2023-09-18T10:32:44;41323.16;;;-145.39;51.56
37078;BME280;22989;55.998;37.212;2023-09-18T10:35:14;41153.34;;;-145.39;51.30
37078;BME280;22989;55.998;37.212;2023-09-18T10:37:42;40997.19;;;-145.39;51.38
37078;BME280;22989;55.998;37.212;2023-09-18T10:40:11;40936.69;;;-145.39;50.76
37078;BME280;22989;55.998;37.212;2023-09-18T10:42:39;40950.34;;;-145.39;50.31
37078;BME280;22989;55.998;37.212;2023-09-18T10:45:06;41008.91;;;-145.39;50.14
37078;BME280;22989;55.998;37.212;2023-09-18T10:47:38;41065.50;;;-145.39;50.03
37078;BME280;22989;55.998;37.212;2023-09-18T10:50:05;41116.25;;;-145.39;49.68
37078;BME280;22989;55.998;37.212;2023-09-18T10:52:34;41338.78;;;-145.39;49.63
37078;BME280;22989;55.998;37.212;2023-09-18T10:55:01;41332.91;;;-145.39;49.61
37078;BME280;22989;55.998;37.212;2023-09-18T10:57:33;41286.06;;;-145.39;49.46
37078;BME280;22989;55.998;37.212;2023-09-18T11:00:01;41215.78;;;-145.39;49.53
37078;BME280;22989;55.998;37.212;2023-09-18T11:02:42;41122.09;;;-145.39;49.41
37078;BME280;22989;55.998;37.212;2023-09-18T11:05:07;41112.34;;;-145.39;49.36
37078;BME280;22989;55.998;37.212;2023-09-18T11:07:33;41100.63;;;-145.39;49.36
37078;BME280;22989;55.998;37.212;2023-09-18T11:09:59;41217.75;;;-145.39;49.16
37078;BME280;22989;55.998;37.212;2023-09-18T11:12:44;41256.78;;;-145.39;49.14
37078;BME280;22989;55.998;37.212;2023-09-18T11:15:25;41330.97;;;-145.39;49.29
37078;BME280;22989;55.998;37.212;2023-09-18T11:18:00;41377.81;;;-145.39;49.34
37078;BME280;22989;55.998;37.212;2023-09-18T11:20:28;41416.84;;;-145.39;49.33
37078;BME280;22989;55.998;37.212;2023-09-18T11:25:43;41424.66;;;-145.39;49.25
37078;BME280;22989;55.998;37.212;2023-09-18T11:28:24;41403.19;;;-145.39;49.18
37078;BME280;22989;55.998;37.212;2023-09-18T11:30:52;41352.44;;;-145.39;49.14
37078;BME280;22989;55.998;37.212;2023-09-18T11:33:33;41317.28;;;-145.39;49.24
37078;BME280;22989;55.998;37.212;2023-09-18T11:36:06;41264.59;;;-145.39;49.16
37078;BME280;22989;55.998;37.212;2023-09-18T11:38:35;41252.88;;;-145.39;48.99
37078;BME280;22989;55.998;37.212;2023-09-18T11:41:22;41248.97;;;-145.39;49.00
37078;BME280;22989;55.998;37.212;2023-09-18T11:43:48;41243.13;;;-145.39;48.92
37078;BME280;22989;55.998;37.212;2023-09-18T11:46:18;41235.31;;;-145.39;48.65
37078;BME280;22989;55.998;37.212;2023-09-18T11:48:47;41241.16;;;-145.39;48.84
37078;BME280;22989;55.998;37.212;2023-09-18T11:51:12;41206.03;;;-145.39;48.80
37078;BME280;22989;55.998;37.212;2023-09-18T11:53:40;41079.16;;;-145.39;48.70
37078;BME280;22989;55.998;37.212;2023-09-18T11:56:11;41090.88;;;-145.39;48.54
37078;BME280;22989;55.998;37.212;2023-09-18T11:58:48;40979.63;;;-145.39;48.41
37078;BME280;22989;55.998;37.212;2023-09-18T12:01:14;41045.97;;;-145.39;48.37
37078;BME280;22989;55.998;37.212;2023-09-18T12:03:43;41159.19;;;-145.39;48.38
37078;BME280;22989;55.998;37.212;2023-09-18T12:06:09;41252.88;;;-145.39;48.50
37078;BME280;22989;55.998;37.212;2023-09-18T12:08:39;41168.94;;;-145.39;48.50
37078;BME280;22989;55.998;37.212;2023-09-18T12:11:06;41206.03;;;-145.39;48.45
37078;BME280;22989;55.998;37.212;2023-09-18T12:13:32;41278.25;;;-145.39;48.48
37078;BME280;22989;55.998;37.212;2023-09-18T12:16:03;41309.50;;;-145.39;48.71
37078;BME280;22989;55.998;37.212;2023-09-18T12:18:32;41301.69;;;-145.39;48.75
37078;BME280;22989;55.998;37.212;2023-09-18T12:21:01;41350.47;;;-145.39;48.66
37078;BME280;22989;55.998;37.212;2023-09-18T12:23:37;41362.19;;;-145.39;48.71
37078;BME280;22989;55.998;37.212;2023-09-18T12:26:03;41356.34;;;-145.39;48.71
37078;BME280;22989;55.998;37.212;2023-09-18T12:28:29;41309.50;;;-145.39;48.67
37078;BME280;22989;55.998;37.212;2023-09-18T12:30:56;41288.03;;;-145.39;48.51
37078;BME280;22989;55.998;37.212;2023-09-18T12:33:25;41225.56;;;-145.39;48.54
37078;BME280;22989;55.998;37.212;2023-09-18T12:35:51;41168.94;;;-145.39;48.42
37078;BME280;22989;55.998;37.212;2023-09-18T12:38:18;41194.31;;;-145.39;48.36
37078;BME280;22989;55.998;37.212;2023-09-18T12:40:51;41206.03;;;-145.39;48.30